createdAt,value
2019-04-03T00:01:10.242Z,39.57
2019-04-03T00:03:39.645Z,38.20
2019-04-03T00:06:09.071Z,37.53
2019-04-03T00:08:38.444Z,37.60
2019-04-03T00:11:09.426Z,32.33
2019-04-03T00:13:41.342Z,38.53
2019-04-03T00:16:09.828Z,36.77
2019-04-03T00:18:39.248Z,41.00
2019-04-03T00:21:08.554Z,34.20
2019-04-03T00:23:37.912Z,38.57
2019-04-03T00:26:07.315Z,38.50
2019-04-03T00:28:36.701Z,35.03
2019-04-03T00:31:06.135Z,33.97
2019-04-03T00:33:35.712Z,37.63
2019-04-03T00:36:05.059Z,35.93
2019-04-03T00:38:34.497Z,32.50
2019-04-03T00:41:03.849Z,32.47
2019-04-03T00:43:33.215Z,31.73
2019-04-03T00:46:02.862Z,39.03
2019-04-03T00:48:32.186Z,29.80
2019-04-03T00:51:01.534Z,34.83
2019-04-03T00:53:30.967Z,34.50
2019-04-03T00:56:00.330Z,32.87
2019-04-03T00:58:42.864Z,33.33
2019-04-03T01:01:13.002Z,30.37
2019-04-03T01:03:42.720Z,29.50
2019-04-03T01:06:12.042Z,33.57
2019-04-03T01:08:41.449Z,31.97
2019-04-03T01:11:10.824Z,30.30
2019-04-03T01:13:40.256Z,26.90
2019-04-03T01:16:09.673Z,33.57
2019-04-03T01:18:39.453Z,26.30
2019-04-03T01:21:09.952Z,34.77
2019-04-03T01:23:39.310Z,32.13
2019-04-03T01:26:10.084Z,29.67
2019-04-03T01:28:41.608Z,32.93
2019-04-03T01:31:10.651Z,32.47
2019-04-03T01:33:39.986Z,29.77
2019-04-03T01:36:09.523Z,31.50
2019-04-03T01:38:38.935Z,33.27
2019-04-03T01:41:08.245Z,31.57
2019-04-03T01:43:37.947Z,37.17
2019-04-03T01:46:07.379Z,32.90
2019-04-03T01:48:36.957Z,38.50
2019-04-03T01:51:09.246Z,37.10
2019-04-03T01:53:38.583Z,34.87
2019-04-03T01:56:08.174Z,33.57
2019-04-03T01:58:37.795Z,31.97
2019-04-03T02:01:08.016Z,36.77
2019-04-03T02:03:37.915Z,32.27
2019-04-03T02:06:07.297Z,33.00
2019-04-03T02:08:36.673Z,35.20
2019-04-03T02:11:06.336Z,34.70
2019-04-03T02:13:35.872Z,35.93
2019-04-03T02:16:05.274Z,34.53
2019-04-03T02:18:34.659Z,31.83
2019-04-03T02:21:04.105Z,36.57
2019-04-03T02:23:33.470Z,38.47
2019-04-03T02:26:03.038Z,35.87
2019-04-03T02:28:34.193Z,35.90
2019-04-03T02:31:03.645Z,35.43
2019-04-03T02:33:33.019Z,32.83
2019-04-03T02:36:02.471Z,37.97
2019-04-03T02:38:32.085Z,39.17
2019-04-03T02:41:04.066Z,38.17
2019-04-03T02:43:32.472Z,36.23
2019-04-03T02:46:02.021Z,37.97
2019-04-03T02:48:31.440Z,36.73
2019-04-03T02:51:01.097Z,35.53
2019-04-03T02:53:31.209Z,37.60
2019-04-03T02:56:01.026Z,38.23
2019-04-03T02:58:30.391Z,33.37
2019-04-03T03:01:00.361Z,34.27
2019-04-03T03:03:29.605Z,36.77
2019-04-03T03:06:01.513Z,36.33
2019-04-03T03:08:31.388Z,40.70
2019-04-03T03:11:05.833Z,43.90
2019-04-03T03:13:35.799Z,40.90
2019-04-03T03:16:09.338Z,38.47
2019-04-03T03:18:42.108Z,37.40
2019-04-03T03:21:15.892Z,32.53
2019-04-03T03:23:47.292Z,38.27
2019-04-03T03:26:17.595Z,39.33
2019-04-03T03:28:47.608Z,42.63
2019-04-03T03:31:19.124Z,37.30
2019-04-03T03:33:49.877Z,34.30
2019-04-03T03:36:23.180Z,38.53
2019-04-03T03:38:54.155Z,34.67
2019-04-03T03:41:24.832Z,34.90
2019-04-03T03:43:55.275Z,34.03
2019-04-03T03:46:27.822Z,40.37
2019-04-03T03:48:59.160Z,39.43
2019-04-03T03:51:34.249Z,34.37
2019-04-03T03:54:05.227Z,42.57
2019-04-03T03:56:39.349Z,37.07
2019-04-03T03:59:05.894Z,37.60
2019-04-03T04:01:36.284Z,40.30
2019-04-03T04:04:06.499Z,32.83
2019-04-03T04:06:36.716Z,34.97
2019-04-03T04:09:08.394Z,37.07
2019-04-03T04:11:38.441Z,35.27
2019-04-03T04:14:08.411Z,39.57
2019-04-03T04:16:38.292Z,37.77
2019-04-03T04:19:11.003Z,39.93
2019-04-03T04:21:44.020Z,35.27
2019-04-03T04:24:12.391Z,34.33
2019-04-03T04:26:42.915Z,34.70
2019-04-03T04:29:12.688Z,41.77
2019-04-03T04:31:44.080Z,34.57
2019-04-03T04:34:14.499Z,37.77
2019-04-03T04:36:43.822Z,37.10
2019-04-03T04:39:14.318Z,37.50
2019-04-03T04:41:43.647Z,37.30
2019-04-03T04:44:14.739Z,39.40
2019-04-03T04:46:44.667Z,36.67
2019-04-03T04:49:14.446Z,40.37
2019-04-03T04:51:43.857Z,38.33
2019-04-03T04:54:13.223Z,39.60
2019-04-03T04:56:42.803Z,41.33
2019-04-03T04:59:13.544Z,40.07
2019-04-03T05:01:43.412Z,38.63
2019-04-03T05:04:15.368Z,40.77
2019-04-03T05:06:43.855Z,40.27
2019-04-03T05:09:13.420Z,40.80
2019-04-03T05:11:42.793Z,37.23
2019-04-03T05:14:12.117Z,35.53
2019-04-03T05:16:41.529Z,37.37
2019-04-03T05:19:17.631Z,37.80
2019-04-03T05:21:42.153Z,40.03
2019-04-03T05:24:13.736Z,39.73
2019-04-03T05:26:42.745Z,36.07
2019-04-03T05:29:12.143Z,42.30
2019-04-03T05:31:41.679Z,39.47
2019-04-03T05:34:13.219Z,38.97
2019-04-03T05:36:42.078Z,39.13
2019-04-03T05:39:11.467Z,41.80
2019-04-03T05:41:41.112Z,35.67
2019-04-03T05:44:10.578Z,35.93
2019-04-03T05:46:40.041Z,34.60
2019-04-03T05:49:10.863Z,32.23
2019-04-03T05:51:41.326Z,38.10
2019-04-03T05:54:12.451Z,33.73
2019-04-03T05:56:42.950Z,36.40
2019-04-03T05:59:12.802Z,42.00
2019-04-03T06:01:45.860Z,69.73
2019-04-03T06:04:13.153Z,33.83
2019-04-03T06:06:42.635Z,35.93
2019-04-03T06:09:13.685Z,38.77
2019-04-03T06:11:43.073Z,35.87
2019-04-03T06:14:12.439Z,38.90
2019-04-03T06:16:41.839Z,33.93
2019-04-03T06:19:11.242Z,34.03
2019-04-03T06:21:40.562Z,35.87
2019-04-03T06:24:09.974Z,34.90
2019-04-03T06:26:39.567Z,32.67
2019-04-03T06:29:09.255Z,34.03
2019-04-03T06:31:38.930Z,36.67
2019-04-03T06:34:08.607Z,36.83
2019-04-03T06:36:38.216Z,33.30
2019-04-03T06:39:09.828Z,35.37
2019-04-03T06:41:41.565Z,37.50
2019-04-03T06:44:10.546Z,37.10
2019-04-03T06:46:40.111Z,40.93
2019-04-03T06:49:09.641Z,42.90
2019-04-03T06:51:40.504Z,44.67
2019-04-03T06:54:10.008Z,39.87
2019-04-03T06:56:40.701Z,43.57
2019-04-03T06:59:10.423Z,42.83
2019-04-03T07:01:39.725Z,46.20
2019-04-03T07:04:09.302Z,48.10
2019-04-03T07:06:38.630Z,50.67
2019-04-03T07:09:21.075Z,54.80
2019-04-03T07:11:39.298Z,55.53
2019-04-03T07:14:09.079Z,64.57
2019-04-03T07:16:38.978Z,55.60
2019-04-03T07:19:08.679Z,61.53
2019-04-03T07:21:38.420Z,52.07
2019-04-03T07:24:07.741Z,52.63
2019-04-03T07:26:37.187Z,52.60
2019-04-03T07:29:06.639Z,54.40
2019-04-03T07:31:36.372Z,65.53
2019-04-03T07:34:05.704Z,59.30
2019-04-03T07:36:35.386Z,47.30
2019-04-03T07:39:10.889Z,45.67
2019-04-03T07:41:41.193Z,42.37
2019-04-03T07:44:10.025Z,45.53
2019-04-03T07:46:39.409Z,47.77
2019-04-03T07:49:09.788Z,58.53
2019-04-03T07:51:39.359Z,48.20
2019-04-03T07:54:08.798Z,54.00
2019-04-03T07:56:38.237Z,48.60
2019-04-03T07:59:07.689Z,55.47
2019-04-03T08:01:40.298Z,46.17
2019-04-03T08:04:08.082Z,50.77
2019-04-03T08:06:37.515Z,46.77
2019-04-03T08:09:10.381Z,46.33
2019-04-03T08:11:39.998Z,41.87
2019-04-03T08:14:11.153Z,45.50
2019-04-03T08:16:42.683Z,37.10
2019-04-03T08:19:11.947Z,45.67
2019-04-03T08:21:41.489Z,43.47
2019-04-03T08:24:10.870Z,51.60
2019-04-03T08:26:40.340Z,42.00
2019-04-03T08:29:09.862Z,43.83
2019-04-03T08:31:42.725Z,43.67
2019-04-03T08:34:16.570Z,40.03
2019-04-03T08:36:41.612Z,40.30
2019-04-03T08:39:11.130Z,39.87
2019-04-03T08:41:40.776Z,52.47
2019-04-03T08:44:10.367Z,49.33
2019-04-03T08:46:42.814Z,43.70
2019-04-03T08:49:10.861Z,50.10
2019-04-03T08:51:40.284Z,38.77
2019-04-03T08:54:11.208Z,48.10
2019-04-03T08:56:40.970Z,46.53
2019-04-03T08:59:12.718Z,52.97
2019-04-03T09:01:41.517Z,38.43
2019-04-03T09:04:11.080Z,41.07
2019-04-03T09:06:40.738Z,42.63
2019-04-03T09:09:12.720Z,40.43
2019-04-03T09:11:42.385Z,38.43
2019-04-03T09:14:15.017Z,35.97
2019-04-03T09:16:44.426Z,33.87
2019-04-03T09:19:16.678Z,39.27
2019-04-03T09:21:47.496Z,44.67
2019-04-03T09:24:15.893Z,37.50
2019-04-03T09:26:45.275Z,34.33
2019-04-03T09:29:14.674Z,43.03
2019-04-03T09:31:44.127Z,37.93
2019-04-03T09:34:13.908Z,37.33
2019-04-03T09:36:43.495Z,43.40
2019-04-03T09:39:14.628Z,40.17
2019-04-03T09:41:44.213Z,50.27
2019-04-03T09:44:13.625Z,46.67
2019-04-03T09:46:44.711Z,46.03
2019-04-03T09:49:14.206Z,42.37
2019-04-03T09:51:44.922Z,39.20
2019-04-03T09:54:14.269Z,36.13
2019-04-03T09:56:56.361Z,40.63
2019-04-03T09:59:16.290Z,41.67
2019-04-03T10:01:47.658Z,32.97
2019-04-03T10:04:16.981Z,39.07
2019-04-03T10:06:46.517Z,36.90
2019-04-03T10:09:16.017Z,27.57
2019-04-03T10:11:45.523Z,27.00
2019-04-03T10:14:16.260Z,25.33
2019-04-03T10:16:45.541Z,22.07
2019-04-03T10:19:14.949Z,21.13
2019-04-03T10:21:44.351Z,20.27
2019-04-03T10:24:13.792Z,16.23
2019-04-03T10:26:43.295Z,18.03
2019-04-03T10:29:12.720Z,18.37
2019-04-03T10:31:42.077Z,16.30
2019-04-03T10:34:13.688Z,21.40
2019-04-03T10:36:43.411Z,16.10
2019-04-03T10:39:13.702Z,18.03
2019-04-03T10:41:43.248Z,15.37
2019-04-03T10:44:12.735Z,15.20
2019-04-03T10:46:42.248Z,13.97
2019-04-03T10:49:11.559Z,17.27
2019-04-03T10:51:42.006Z,18.17
2019-04-03T10:54:11.412Z,17.93
2019-04-03T10:56:40.886Z,17.00
2019-04-03T10:59:13.764Z,15.07
2019-04-03T11:01:42.613Z,15.93
2019-04-03T11:04:13.256Z,15.10
2019-04-03T11:06:42.676Z,13.57
2019-04-03T11:09:12.257Z,13.90
2019-04-03T11:11:43.578Z,13.10
2019-04-03T11:14:13.088Z,10.60
2019-04-03T11:16:46.021Z,12.23
2019-04-03T11:19:13.828Z,12.80
2019-04-03T11:21:44.072Z,12.53
2019-04-03T11:24:14.629Z,11.07
2019-04-03T11:26:44.122Z,12.03
2019-04-03T11:29:13.828Z,11.80
2019-04-03T11:31:43.415Z,14.07
2019-04-03T11:34:12.866Z,12.03
2019-04-03T11:36:42.323Z,14.87
2019-04-03T11:39:15.511Z,10.63
2019-04-03T11:41:42.832Z,11.10
2019-04-03T11:44:12.154Z,12.70
2019-04-03T11:46:41.554Z,10.17
2019-04-03T11:49:10.892Z,10.40
2019-04-03T11:51:40.642Z,9.27
2019-04-03T11:54:10.109Z,9.03
2019-04-03T11:56:39.546Z,8.23
2019-04-03T11:59:08.884Z,7.93
2019-04-03T12:01:38.442Z,9.40
2019-04-03T12:04:08.291Z,7.83
2019-04-03T12:06:37.671Z,8.50
2019-04-03T12:09:08.918Z,7.43
2019-04-03T12:11:39.516Z,7.67
2019-04-03T12:14:09.638Z,6.93
2019-04-03T12:16:40.294Z,7.67
2019-04-03T12:19:09.739Z,7.13
2019-04-03T12:21:40.192Z,7.37
2019-04-03T12:24:09.553Z,8.33
2019-04-03T12:26:38.865Z,8.13
2019-04-03T12:29:09.434Z,7.67
2019-04-03T12:31:39.054Z,9.10
2019-04-03T12:34:08.510Z,8.53
2019-04-03T12:36:37.910Z,9.20
2019-04-03T12:39:14.297Z,7.90
2019-04-03T12:41:44.109Z,7.63
2019-04-03T12:44:13.606Z,8.03
2019-04-03T12:46:43.000Z,7.67
2019-04-03T12:49:12.804Z,8.90
2019-04-03T12:51:42.392Z,7.90
2019-04-03T12:54:13.374Z,8.53
2019-04-03T12:56:42.788Z,7.73
2019-04-03T12:59:12.907Z,7.63
2019-04-03T13:01:42.301Z,7.60
2019-04-03T13:04:12.166Z,6.77
2019-04-03T13:06:42.370Z,7.37
2019-04-03T13:09:12.867Z,9.53
2019-04-03T13:11:42.249Z,8.20
2019-04-03T13:14:22.578Z,7.87
2019-04-03T13:16:43.108Z,10.43
2019-04-03T13:19:15.656Z,11.07
2019-04-03T13:21:46.210Z,9.27
2019-04-03T13:24:17.132Z,9.83
2019-04-03T13:26:47.133Z,8.60
2019-04-03T13:29:20.390Z,10.30
2019-04-03T13:31:48.723Z,9.73
2019-04-03T13:34:18.033Z,9.20
2019-04-03T13:36:50.242Z,8.53
2019-04-03T13:39:18.702Z,9.13
2019-04-03T13:41:48.220Z,10.73
2019-04-03T13:44:17.680Z,10.47
2019-04-03T13:46:47.185Z,10.23
2019-04-03T13:49:18.072Z,10.90
2019-04-03T13:51:47.614Z,10.73
2019-04-03T13:54:20.014Z,11.23
2019-04-03T13:57:00.515Z,10.63
2019-04-03T13:59:30.081Z,10.77
2019-04-03T14:01:59.540Z,10.53
2019-04-03T14:04:29.385Z,12.17
2019-04-03T14:06:58.777Z,10.53
2019-04-03T14:09:28.379Z,11.78
2019-04-03T14:12:00.377Z,10.47
2019-04-03T14:14:28.777Z,11.13
2019-04-03T14:16:58.181Z,11.20
2019-04-03T14:19:28.672Z,12.33
2019-04-03T14:21:59.939Z,11.50
2019-04-03T14:24:39.399Z,11.77
2019-04-03T14:27:00.293Z,12.53
2019-04-03T14:29:30.214Z,11.93
2019-04-03T14:31:59.833Z,12.17
2019-04-03T14:34:30.350Z,13.20
2019-04-03T14:37:00.047Z,11.23
2019-04-03T14:39:29.686Z,12.30
2019-04-03T14:41:59.105Z,12.33
2019-04-03T14:44:28.432Z,12.40
2019-04-03T14:46:57.865Z,12.80
2019-04-03T14:49:30.823Z,11.37
2019-04-03T14:51:58.465Z,12.00
2019-04-03T14:54:30.328Z,11.90
2019-04-03T14:56:59.201Z,10.93
2019-04-03T14:59:30.606Z,11.50
2019-04-03T15:01:59.722Z,11.80
2019-04-03T15:04:32.534Z,11.33
2019-04-03T15:07:03.543Z,10.84
2019-04-03T15:09:31.265Z,11.87
2019-04-03T15:12:00.759Z,12.17
2019-04-03T15:14:30.106Z,11.43
2019-04-03T15:16:59.705Z,11.27
2019-04-03T15:19:30.609Z,12.23
2019-04-03T15:22:02.210Z,11.70
2019-04-03T15:24:31.302Z,12.63
2019-04-03T15:27:00.769Z,11.17
2019-04-03T15:29:30.628Z,11.50
2019-04-03T15:32:00.551Z,12.93
2019-04-03T15:34:29.954Z,12.17
2019-04-03T15:36:59.480Z,13.53
2019-04-03T15:39:28.889Z,12.17
2019-04-03T15:41:58.218Z,12.97
2019-04-03T15:44:28.404Z,13.13
2019-04-03T15:47:00.736Z,12.83
2019-04-03T15:49:29.789Z,11.53
2019-04-03T15:51:59.302Z,13.33
2019-04-03T15:54:31.489Z,11.43
2019-04-03T15:56:59.958Z,10.43
2019-04-03T15:59:30.763Z,10.20
2019-04-03T16:02:00.424Z,10.03
2019-04-03T16:04:33.410Z,10.03
2019-04-03T16:07:02.142Z,10.43
2019-04-03T16:09:31.481Z,9.60
2019-04-03T16:12:02.640Z,9.70
2019-04-03T16:14:32.000Z,10.00
2019-04-03T16:17:02.941Z,9.40
2019-04-03T16:19:32.668Z,9.37
2019-04-03T16:22:02.720Z,10.83
2019-04-03T16:24:32.465Z,11.07
2019-04-03T16:27:01.878Z,9.07
2019-04-03T16:29:31.412Z,10.53
2019-04-03T16:32:00.949Z,7.93
2019-04-03T16:34:30.417Z,8.57
2019-04-03T16:36:59.985Z,7.43
2019-04-03T16:39:31.569Z,8.80
2019-04-03T16:42:00.419Z,8.80
2019-04-03T16:44:29.890Z,8.50
2019-04-03T16:46:59.180Z,7.83
2019-04-03T16:49:28.773Z,8.47
2019-04-03T16:51:58.139Z,7.73
2019-04-03T16:54:29.109Z,8.13
2019-04-03T16:56:58.816Z,12.13
2019-04-03T16:59:28.311Z,7.87
2019-04-03T17:01:57.810Z,8.23
2019-04-03T17:04:28.742Z,8.83
2019-04-03T17:06:58.190Z,8.40
2019-04-03T17:09:28.357Z,9.40
2019-04-03T17:11:57.692Z,9.77
2019-04-03T17:14:27.274Z,9.03
2019-04-03T17:16:56.689Z,10.33
2019-04-03T17:19:25.975Z,9.30
2019-04-03T17:21:55.363Z,9.07
2019-04-03T17:24:24.764Z,9.73
2019-04-03T17:26:58.285Z,12.83
2019-04-03T17:29:26.792Z,9.87
2019-04-03T17:31:58.146Z,10.07
2019-04-03T17:34:27.881Z,10.50
2019-04-03T17:37:00.367Z,13.03
2019-04-03T17:39:29.849Z,29.20
2019-04-03T17:41:59.359Z,49.40
2019-04-03T17:44:28.785Z,29.20
2019-04-03T17:46:58.144Z,12.67
2019-04-03T17:49:28.480Z,12.00
2019-04-03T17:51:58.598Z,11.17
2019-04-03T17:54:28.140Z,11.57
2019-04-03T17:56:57.555Z,11.43
2019-04-03T17:59:26.898Z,11.30
2019-04-03T18:01:56.357Z,10.27
2019-04-03T18:04:25.701Z,13.00
2019-04-03T18:06:57.320Z,12.23
2019-04-03T18:09:26.223Z,11.53
2019-04-03T18:11:57.821Z,13.83
2019-04-03T18:14:27.113Z,13.77
2019-04-03T18:16:56.695Z,15.30
2019-04-03T18:19:37.011Z,14.47
2019-04-03T18:21:57.239Z,16.23
2019-04-03T18:24:27.238Z,17.55
2019-04-03T18:26:56.674Z,20.53
2019-04-03T18:29:26.019Z,22.00
2019-04-03T18:31:55.420Z,24.67
2019-04-03T18:34:25.904Z,28.00
2019-04-03T18:36:55.365Z,18.37
2019-04-03T18:39:24.691Z,16.60
2019-04-03T18:41:54.085Z,15.70
2019-04-03T18:44:26.047Z,17.30
2019-04-03T18:46:54.556Z,16.33
2019-04-03T18:49:23.998Z,19.03
2019-04-03T18:51:53.534Z,17.80
2019-04-03T18:54:23.305Z,18.80
2019-04-03T18:56:52.764Z,19.03
2019-04-03T18:59:23.954Z,18.03
2019-04-03T19:01:53.258Z,18.03
2019-04-03T19:04:22.612Z,20.00
2019-04-03T19:06:51.989Z,20.87
2019-04-03T19:09:21.714Z,22.17
2019-04-03T19:11:51.605Z,21.83
2019-04-03T19:14:27.125Z,23.17
2019-04-03T19:16:54.440Z,28.10
2019-04-03T19:19:23.780Z,24.27
2019-04-03T19:21:54.640Z,24.37
2019-04-03T19:24:24.745Z,28.63
2019-04-03T19:26:54.657Z,34.27
2019-04-03T19:29:24.201Z,35.10
2019-04-03T19:31:53.612Z,33.90
2019-04-03T19:34:23.160Z,36.13
2019-04-03T19:36:52.761Z,34.37
2019-04-03T19:39:22.214Z,36.27
2019-04-03T19:41:51.649Z,36.07
2019-04-03T19:44:21.099Z,33.43
2019-04-03T19:46:51.978Z,30.17
2019-04-03T19:49:23.447Z,29.10
2019-04-03T19:51:52.899Z,29.50
2019-04-03T19:54:22.214Z,26.97
2019-04-03T19:56:51.610Z,26.87
2019-04-03T19:59:21.112Z,24.60
2019-04-03T20:01:50.429Z,71.67
2019-04-03T20:04:19.819Z,61.53
2019-04-03T20:06:49.211Z,26.50
2019-04-03T20:09:19.606Z,28.50
2019-04-03T20:11:49.071Z,26.07
2019-04-03T20:14:18.561Z,25.47
2019-04-03T20:16:48.038Z,24.77
2019-04-03T20:19:17.437Z,25.87
2019-04-03T20:21:46.819Z,27.17
2019-04-03T20:24:16.306Z,25.90
2019-04-03T20:26:46.651Z,28.53
2019-04-03T20:29:16.379Z,25.67
2019-04-03T20:31:45.767Z,30.23
2019-04-03T20:34:15.226Z,31.13
2019-04-03T20:36:44.618Z,30.30
2019-04-03T20:39:14.072Z,29.23
2019-04-03T20:41:43.419Z,37.70
2019-04-03T20:44:12.736Z,30.13
2019-04-03T20:46:42.230Z,31.83
2019-04-03T20:49:11.695Z,31.03
2019-04-03T20:51:41.074Z,33.73
2019-04-03T20:54:11.969Z,33.10
2019-04-03T20:56:41.452Z,31.77
2019-04-03T20:59:11.983Z,32.27
2019-04-03T21:01:41.644Z,36.93
2019-04-03T21:04:11.053Z,35.77
2019-04-03T21:06:40.563Z,35.33
2019-04-03T21:09:09.992Z,34.33
2019-04-03T21:11:39.405Z,36.73
2019-04-03T21:14:11.095Z,38.70
2019-04-03T21:16:39.874Z,36.07
2019-04-03T21:19:09.271Z,38.53
2019-04-03T21:21:38.615Z,38.67
2019-04-03T21:24:08.013Z,42.07
2019-04-03T21:26:38.287Z,36.53
2019-04-03T21:29:07.749Z,43.07
2019-04-03T21:31:37.171Z,40.43
2019-04-03T21:34:06.577Z,40.97
2019-04-03T21:36:38.466Z,38.07
2019-04-03T21:39:09.118Z,40.13
2019-04-03T21:41:38.436Z,36.90
2019-04-03T21:44:07.743Z,39.17
2019-04-03T21:46:39.585Z,41.57
2019-04-03T21:49:08.134Z,37.97
2019-04-03T21:51:37.563Z,42.40
2019-04-03T21:54:06.987Z,42.57
2019-04-03T21:56:36.449Z,38.63
2019-04-03T21:59:05.793Z,41.73
2019-04-03T22:01:35.198Z,35.30
2019-04-03T22:04:04.824Z,34.53
2019-04-03T22:06:34.322Z,35.40
2019-04-03T22:09:06.405Z,35.07
2019-04-03T22:11:35.841Z,36.67
2019-04-03T22:14:05.517Z,36.43
2019-04-03T22:16:34.949Z,34.60
2019-04-03T22:19:04.418Z,34.83
2019-04-03T22:21:33.899Z,32.20
2019-04-03T22:24:06.574Z,34.00
2019-04-03T22:26:34.493Z,32.40
2019-04-03T22:29:03.947Z,33.13
2019-04-03T22:31:33.407Z,34.77
2019-04-03T22:34:02.873Z,34.40
2019-04-03T22:36:33.645Z,35.17
2019-04-03T22:39:04.215Z,34.37
2019-04-03T22:41:33.693Z,32.33
2019-04-03T22:44:03.386Z,34.33
2019-04-03T22:46:34.035Z,31.93
2019-04-03T22:49:04.709Z,34.20
2019-04-03T22:51:34.157Z,30.27
2019-04-03T22:54:03.648Z,37.73
2019-04-03T22:56:33.146Z,33.30
2019-04-03T22:59:02.659Z,33.57
2019-04-03T23:01:32.137Z,28.30
2019-04-03T23:04:04.985Z,32.07
2019-04-03T23:06:33.741Z,33.97
2019-04-03T23:09:05.010Z,36.17
2019-04-03T23:11:34.656Z,31.53
2019-04-03T23:14:06.898Z,35.50
2019-04-03T23:16:36.680Z,32.70
2019-04-03T23:19:06.185Z,33.80
2019-04-03T23:21:35.631Z,34.03
2019-04-03T23:24:05.110Z,33.40
2019-04-03T23:26:34.573Z,32.00
2019-04-03T23:29:05.146Z,33.23
2019-04-03T23:31:35.251Z,33.23
2019-04-03T23:34:04.811Z,33.40
2019-04-03T23:36:34.305Z,34.80
2019-04-03T23:39:05.919Z,33.70
2019-04-03T23:41:36.657Z,33.00
2019-04-03T23:44:06.452Z,33.33
2019-04-03T23:46:37.766Z,34.13
2019-04-03T23:49:07.231Z,38.30
2019-04-03T23:51:36.681Z,35.10
2019-04-03T23:54:06.181Z,37.33
2019-04-03T23:56:38.628Z,35.43
2019-04-03T23:59:06.805Z,39.73
